createdAt,value
2018-11-03T00:01:07.413Z,7.90
2018-11-03T00:03:35.547Z,7.80
2018-11-03T00:06:03.828Z,7.80
2018-11-03T00:08:31.971Z,7.80
2018-11-03T00:11:00.253Z,8.10
2018-11-03T00:13:28.575Z,8.20
2018-11-03T00:15:56.772Z,8.10
2018-11-03T00:18:24.847Z,8.30
2018-11-03T00:20:53.261Z,8.50
2018-11-03T00:23:21.624Z,8.50
2018-11-03T00:25:50.229Z,8.40
2018-11-03T00:28:18.464Z,8.20
2018-11-03T00:30:46.691Z,8.10
2018-11-03T00:33:14.911Z,8.00
2018-11-03T00:35:43.252Z,7.90
2018-11-03T00:38:11.567Z,7.90
2018-11-03T00:40:39.747Z,7.80
2018-11-03T00:43:07.982Z,8.10
2018-11-03T00:45:36.113Z,8.10
2018-11-03T00:48:04.269Z,7.90
2018-11-03T00:50:32.862Z,7.70
2018-11-03T00:53:01.185Z,7.70
2018-11-03T00:55:29.438Z,7.70
2018-11-03T00:57:57.487Z,7.60
2018-11-03T01:00:26.042Z,7.60
2018-11-03T01:02:54.821Z,7.60
2018-11-03T01:05:23.491Z,7.50
2018-11-03T01:07:51.614Z,7.50
2018-11-03T01:10:19.876Z,7.40
2018-11-03T01:12:48.122Z,7.40
2018-11-03T01:15:17.341Z,7.60
2018-11-03T01:17:45.689Z,7.80
2018-11-03T01:20:14.926Z,7.90
2018-11-03T01:22:43.331Z,7.80
2018-11-03T01:25:11.601Z,7.60
2018-11-03T01:27:40.444Z,7.70
2018-11-03T01:30:11.475Z,7.50
2018-11-03T01:32:39.661Z,7.40
2018-11-03T01:35:08.515Z,7.20
2018-11-03T01:37:36.912Z,7.00
2018-11-03T01:40:05.488Z,6.90
2018-11-03T01:42:33.948Z,6.80
2018-11-03T01:45:02.512Z,6.90
2018-11-03T01:47:31.019Z,6.90
2018-11-03T01:49:59.373Z,6.80
2018-11-03T01:52:27.947Z,6.70
2018-11-03T01:54:56.316Z,6.70
2018-11-03T01:57:24.474Z,6.80
2018-11-03T01:59:52.565Z,6.80
2018-11-03T02:02:20.598Z,6.70
2018-11-03T02:04:49.118Z,6.60
2018-11-03T02:07:17.319Z,6.80
2018-11-03T02:09:45.976Z,6.80
2018-11-03T02:12:14.183Z,6.70
2018-11-03T02:14:42.376Z,6.70
2018-11-03T02:17:10.587Z,6.60
2018-11-03T02:19:39.563Z,6.80
2018-11-03T02:22:07.650Z,6.70
2018-11-03T02:24:35.660Z,6.90
2018-11-03T02:27:03.819Z,7.00
2018-11-03T02:29:31.897Z,6.90
2018-11-03T02:31:59.958Z,6.70
2018-11-03T02:34:27.963Z,6.60
2018-11-03T02:36:56.060Z,6.60
2018-11-03T02:39:24.134Z,6.70
2018-11-03T02:41:52.222Z,6.80
2018-11-03T02:44:20.221Z,6.80
2018-11-03T02:46:48.233Z,6.80
2018-11-03T02:49:16.281Z,6.80
2018-11-03T02:51:44.277Z,6.80
2018-11-03T02:54:12.337Z,6.90
2018-11-03T02:56:40.409Z,6.80
2018-11-03T02:59:08.496Z,6.80
2018-11-03T03:01:36.686Z,6.80
2018-11-03T03:04:04.981Z,6.80
2018-11-03T03:06:33.058Z,6.80
2018-11-03T03:09:01.370Z,6.80
2018-11-03T03:11:29.426Z,6.90
2018-11-03T03:13:57.828Z,6.80
2018-11-03T03:16:25.842Z,6.80
2018-11-03T03:18:53.863Z,6.80
2018-11-03T03:21:21.926Z,6.90
2018-11-03T03:23:49.992Z,7.00
2018-11-03T03:26:17.998Z,7.00
2018-11-03T03:28:46.099Z,7.10
2018-11-03T03:31:14.147Z,7.30
2018-11-03T03:33:42.198Z,7.40
2018-11-03T03:36:10.254Z,7.40
2018-11-03T03:38:38.294Z,7.30
2018-11-03T03:41:07.057Z,7.20
2018-11-03T03:43:35.082Z,7.10
2018-11-03T03:46:03.090Z,7.10
2018-11-03T03:48:31.137Z,7.00
2018-11-03T03:50:59.187Z,7.00
2018-11-03T03:53:27.241Z,6.90
2018-11-03T03:55:55.362Z,7.00
2018-11-03T03:58:23.754Z,7.10
2018-11-03T04:00:51.774Z,7.20
2018-11-03T04:03:19.777Z,7.10
2018-11-03T04:05:47.829Z,7.10
2018-11-03T04:08:15.825Z,7.10
2018-11-03T04:10:43.873Z,7.00
2018-11-03T04:13:11.923Z,7.00
2018-11-03T04:15:40.035Z,6.90
2018-11-03T04:18:08.044Z,7.00
2018-11-03T04:20:36.074Z,7.10
2018-11-03T04:23:04.590Z,7.10
2018-11-03T04:25:32.617Z,7.20
2018-11-03T04:28:00.670Z,7.40
2018-11-03T04:30:28.750Z,7.20
2018-11-03T04:32:57.038Z,7.10
2018-11-03T04:35:25.086Z,7.20
2018-11-03T04:37:53.097Z,7.50
2018-11-03T04:40:21.183Z,7.50
2018-11-03T04:42:49.228Z,7.30
2018-11-03T04:45:17.512Z,7.20
2018-11-03T04:47:45.461Z,7.10
2018-11-03T04:50:13.519Z,7.10
2018-11-03T04:52:41.606Z,7.10
2018-11-03T04:55:09.914Z,7.10
2018-11-03T04:57:37.922Z,7.00
2018-11-03T05:00:06.877Z,6.90
2018-11-03T05:02:34.962Z,7.10
2018-11-03T05:05:03.013Z,7.10
2018-11-03T05:07:31.017Z,7.10
2018-11-03T05:09:59.308Z,7.00
2018-11-03T05:12:27.282Z,7.00
2018-11-03T05:14:55.386Z,7.00
2018-11-03T05:17:23.435Z,7.00
2018-11-03T05:19:51.454Z,7.10
2018-11-03T05:22:19.462Z,7.00
2018-11-03T05:24:47.523Z,7.00
2018-11-03T05:27:15.601Z,7.00
2018-11-03T05:29:43.990Z,7.00
2018-11-03T05:32:12.013Z,7.00
2018-11-03T05:34:40.126Z,7.00
2018-11-03T05:37:08.182Z,6.90
2018-11-03T05:39:36.198Z,6.90
2018-11-03T05:42:04.469Z,6.80
2018-11-03T05:44:32.506Z,7.00
2018-11-03T05:47:00.510Z,7.20
2018-11-03T05:49:28.566Z,7.30
2018-11-03T05:51:56.566Z,7.30
2018-11-03T05:54:24.622Z,7.50
2018-11-03T05:56:52.690Z,7.50
2018-11-03T05:59:20.794Z,7.30
2018-11-03T06:01:48.889Z,7.10
2018-11-03T06:04:16.890Z,7.10
2018-11-03T06:06:44.933Z,7.10
2018-11-03T06:09:13.028Z,7.00
2018-11-03T06:11:41.125Z,7.00
2018-11-03T06:14:09.513Z,6.90
2018-11-03T06:16:37.512Z,7.20
2018-11-03T06:19:05.813Z,7.50
2018-11-03T06:21:33.853Z,7.50
2018-11-03T06:24:01.909Z,7.50
2018-11-03T06:26:29.958Z,7.30
2018-11-03T06:28:57.976Z,7.20
2018-11-03T06:31:26.213Z,7.10
2018-11-03T06:33:54.255Z,7.20
2018-11-03T06:36:22.390Z,7.50
2018-11-03T06:38:50.751Z,7.30
2018-11-03T06:41:18.737Z,7.30
2018-11-03T06:43:46.825Z,7.20
2018-11-03T06:46:14.872Z,7.30
2018-11-03T06:48:43.182Z,7.30
2018-11-03T06:51:11.234Z,7.30
2018-11-03T06:53:39.247Z,7.30
2018-11-03T06:56:07.262Z,7.40
2018-11-03T06:58:35.305Z,7.30
2018-11-03T07:01:03.421Z,7.30
2018-11-03T07:03:31.483Z,7.30
2018-11-03T07:05:59.591Z,7.30
2018-11-03T07:08:27.624Z,7.40
2018-11-03T07:10:55.675Z,7.40
2018-11-03T07:13:23.845Z,7.70
2018-11-03T07:15:52.096Z,8.00
2018-11-03T07:18:20.313Z,8.10
2018-11-03T07:20:48.388Z,8.20
2018-11-03T07:23:16.477Z,8.30
2018-11-03T07:25:44.564Z,8.30
2018-11-03T07:28:12.654Z,8.10
2018-11-03T07:30:40.731Z,8.00
2018-11-03T07:33:08.761Z,8.00
2018-11-03T07:35:36.757Z,8.00
2018-11-03T07:38:05.323Z,8.00
2018-11-03T07:40:33.373Z,8.30
2018-11-03T07:43:01.471Z,8.60
2018-11-03T07:45:29.520Z,8.60
2018-11-03T07:47:57.625Z,8.60
2018-11-03T07:50:25.631Z,8.60
2018-11-03T07:52:53.666Z,8.60
2018-11-03T07:55:21.783Z,8.60
2018-11-03T07:57:49.786Z,8.60
2018-11-03T08:00:18.084Z,8.60
2018-11-03T08:02:46.107Z,8.80
2018-11-03T08:05:14.166Z,8.90
2018-11-03T08:07:42.224Z,9.10
2018-11-03T08:10:11.206Z,9.20
2018-11-03T08:12:39.330Z,9.30
2018-11-03T08:15:08.402Z,9.50
2018-11-03T08:17:36.480Z,9.50
2018-11-03T08:20:05.434Z,9.50
2018-11-03T08:22:33.486Z,9.50
2018-11-03T08:25:01.563Z,9.50
2018-11-03T08:27:29.629Z,9.60
2018-11-03T08:29:57.683Z,9.60
2018-11-03T08:32:25.906Z,9.70
2018-11-03T08:34:54.006Z,9.70
2018-11-03T08:37:22.053Z,9.70
2018-11-03T08:39:50.121Z,9.70
2018-11-03T08:42:18.174Z,9.70
2018-11-03T08:44:46.233Z,9.80
2018-11-03T08:47:14.293Z,9.90
2018-11-03T08:49:42.394Z,9.90
2018-11-03T08:52:10.441Z,9.80
2018-11-03T08:54:38.565Z,9.80
2018-11-03T08:57:06.646Z,9.90
2018-11-03T08:59:34.760Z,10.00
2018-11-03T09:02:02.822Z,10.10
2018-11-03T09:04:30.910Z,10.20
2018-11-03T09:06:59.120Z,10.10
2018-11-03T09:09:27.076Z,10.00
2018-11-03T09:11:55.462Z,10.00
2018-11-03T09:14:23.667Z,10.00
2018-11-03T09:16:51.942Z,9.90
2018-11-03T09:19:20.034Z,9.80
2018-11-03T09:21:48.205Z,9.80
2018-11-03T09:24:16.281Z,10.00
2018-11-03T09:26:44.302Z,10.10
2018-11-03T09:29:12.355Z,10.30
2018-11-03T09:31:40.835Z,10.40
2018-11-03T09:34:08.934Z,10.30
2018-11-03T09:36:37.030Z,10.30
2018-11-03T09:39:07.698Z,10.40
2018-11-03T09:41:35.951Z,10.40
2018-11-03T09:44:04.010Z,10.40
2018-11-03T09:46:32.094Z,10.40
2018-11-03T09:49:00.113Z,10.50
2018-11-03T09:51:28.298Z,10.70
2018-11-03T09:53:56.374Z,10.70
2018-11-03T09:56:24.809Z,10.80
2018-11-03T09:58:52.835Z,10.80
2018-11-03T10:01:21.188Z,10.90
2018-11-03T10:03:49.217Z,11.00
2018-11-03T10:06:17.334Z,10.70
2018-11-03T10:08:45.536Z,10.70
2018-11-03T10:11:13.527Z,10.70
2018-11-03T10:13:41.597Z,10.80
2018-11-03T10:16:09.606Z,10.90
2018-11-03T10:18:37.742Z,11.10
2018-11-03T10:21:06.117Z,11.20
2018-11-03T10:23:34.590Z,11.10
2018-11-03T10:26:02.649Z,11.30
2018-11-03T10:28:30.662Z,11.30
2018-11-03T10:30:59.016Z,11.50
2018-11-03T10:33:27.218Z,11.50
2018-11-03T10:35:55.174Z,11.50
2018-11-03T10:38:23.273Z,11.50
2018-11-03T10:40:51.610Z,11.40
2018-11-03T10:43:19.633Z,11.60
2018-11-03T10:45:47.645Z,11.80
2018-11-03T10:48:15.697Z,11.50
2018-11-03T10:50:43.745Z,11.60
2018-11-03T10:53:11.801Z,11.80
2018-11-03T10:55:40.780Z,12.00
2018-11-03T10:58:08.811Z,11.90
2018-11-03T11:00:42.312Z,11.50
2018-11-03T11:03:15.783Z,11.30
2018-11-03T11:05:49.278Z,11.30
2018-11-03T11:08:22.960Z,11.70
2018-11-03T11:10:56.411Z,11.70
2018-11-03T11:13:26.201Z,11.80
2018-11-03T11:15:55.890Z,11.80
2018-11-03T11:18:24.050Z,11.80
2018-11-03T11:20:52.070Z,11.90
2018-11-03T11:23:20.110Z,11.80
2018-11-03T11:25:48.178Z,11.60
2018-11-03T11:28:16.189Z,11.30
2018-11-03T11:30:45.043Z,11.30
2018-11-03T11:33:14.463Z,11.40
2018-11-03T11:35:42.849Z,11.60
2018-11-03T11:38:11.694Z,11.80
2018-11-03T11:40:40.182Z,11.80
2018-11-03T11:43:09.338Z,11.80
2018-11-03T11:45:37.478Z,11.80
2018-11-03T11:48:05.489Z,11.70
2018-11-03T11:50:33.818Z,11.70
2018-11-03T11:53:01.824Z,11.90
2018-11-03T11:55:29.879Z,12.00
2018-11-03T11:57:57.933Z,11.60
2018-11-03T12:00:26.190Z,11.20
2018-11-03T12:02:54.167Z,11.20
2018-11-03T12:05:22.256Z,11.40
2018-11-03T12:07:50.396Z,11.60
2018-11-03T12:10:18.617Z,11.70
2018-11-03T12:12:46.569Z,11.70
2018-11-03T12:15:15.071Z,11.50
2018-11-03T12:17:43.150Z,11.50
2018-11-03T12:20:12.157Z,11.50
2018-11-03T12:22:40.343Z,11.50
2018-11-03T12:25:09.547Z,11.60
2018-11-03T12:27:37.737Z,11.60
2018-11-03T12:30:07.837Z,11.70
2018-11-03T12:32:36.058Z,11.80
2018-11-03T12:35:04.245Z,11.90
2018-11-03T12:37:32.294Z,11.90
2018-11-03T12:40:00.293Z,12.10
2018-11-03T12:42:28.492Z,12.10
2018-11-03T12:44:56.453Z,12.10
2018-11-03T12:47:24.564Z,11.70
2018-11-03T12:50:00.855Z,11.60
2018-11-03T12:52:30.200Z,11.60
2018-11-03T12:54:58.442Z,11.70
2018-11-03T12:57:26.506Z,11.70
2018-11-03T12:59:54.710Z,11.80
2018-11-03T13:02:23.010Z,11.80
2018-11-03T13:04:51.677Z,11.70
2018-11-03T13:07:19.609Z,11.90
2018-11-03T13:09:47.875Z,12.30
2018-11-03T13:12:16.051Z,12.50
2018-11-03T13:14:44.467Z,12.80
2018-11-03T13:17:12.534Z,12.70
2018-11-03T13:19:40.717Z,12.80
2018-11-03T13:22:09.190Z,12.90
2018-11-03T13:24:37.300Z,13.00
2018-11-03T13:27:05.307Z,12.90
2018-11-03T13:29:33.367Z,12.80
2018-11-03T13:32:01.454Z,12.60
2018-11-03T13:34:29.514Z,12.70
2018-11-03T13:36:57.567Z,12.50
2018-11-03T13:39:25.561Z,12.20
2018-11-03T13:41:53.783Z,12.10
2018-11-03T13:44:21.801Z,12.00
2018-11-03T13:46:49.837Z,11.80
2018-11-03T13:49:17.910Z,11.80
2018-11-03T13:51:46.013Z,11.90
2018-11-03T13:54:14.066Z,12.00
2018-11-03T13:56:42.216Z,12.00
2018-11-03T13:59:10.582Z,12.10
2018-11-03T14:01:38.731Z,12.20
2018-11-03T14:04:06.751Z,12.10
2018-11-03T14:06:34.933Z,12.10
2018-11-03T14:09:03.246Z,11.90
2018-11-03T14:11:31.373Z,11.80
2018-11-03T14:13:59.382Z,11.80
2018-11-03T14:16:27.476Z,11.80
2018-11-03T14:18:55.491Z,11.90
2018-11-03T14:21:23.697Z,12.00
2018-11-03T14:23:51.725Z,12.00
2018-11-03T14:26:19.778Z,11.90
2018-11-03T14:28:47.905Z,12.00
2018-11-03T14:31:15.903Z,11.90
2018-11-03T14:33:44.066Z,11.80
2018-11-03T14:36:12.167Z,11.60
2018-11-03T14:38:40.307Z,11.40
2018-11-03T14:41:08.317Z,11.40
2018-11-03T14:43:36.361Z,11.40
2018-11-03T14:46:04.429Z,11.40
2018-11-03T14:48:32.449Z,11.30
2018-11-03T14:51:00.573Z,11.20
2018-11-03T14:53:28.662Z,11.20
2018-11-03T14:55:57.283Z,11.10
2018-11-03T14:58:25.317Z,11.00
2018-11-03T15:00:53.390Z,11.00
2018-11-03T15:03:21.476Z,10.90
2018-11-03T15:05:49.665Z,11.00
2018-11-03T15:08:17.700Z,10.90
2018-11-03T15:10:45.838Z,10.90
2018-11-03T15:13:13.907Z,10.90
2018-11-03T15:15:42.114Z,10.80
2018-11-03T15:18:10.131Z,10.70
2018-11-03T15:20:38.295Z,10.70
2018-11-03T15:23:06.360Z,10.70
2018-11-03T15:25:34.483Z,10.80
2018-11-03T15:28:02.554Z,10.70
2018-11-03T15:30:30.590Z,10.70
2018-11-03T15:32:58.637Z,10.60
2018-11-03T15:35:26.950Z,10.50
2018-11-03T15:37:55.042Z,10.50
2018-11-03T15:40:23.209Z,10.40
2018-11-03T15:42:51.338Z,10.60
2018-11-03T15:45:19.349Z,11.00
2018-11-03T15:47:47.745Z,11.00
2018-11-03T15:50:16.415Z,10.90
2018-11-03T15:52:45.004Z,10.40
2018-11-03T15:55:13.107Z,10.10
2018-11-03T15:57:41.170Z,9.90
2018-11-03T16:00:16.102Z,9.60
2018-11-03T16:02:44.277Z,9.40
2018-11-03T16:05:12.484Z,9.20
2018-11-03T16:07:40.637Z,9.00
2018-11-03T16:10:09.389Z,9.00
2018-11-03T16:12:37.574Z,8.80
2018-11-03T16:15:06.732Z,8.80
2018-11-03T16:17:34.752Z,8.70
2018-11-03T16:20:02.754Z,8.70
2018-11-03T16:22:30.857Z,8.50
2018-11-03T16:24:58.913Z,8.50
2018-11-03T16:27:26.998Z,8.30
2018-11-03T16:29:55.082Z,8.30
2018-11-03T16:32:23.453Z,8.30
2018-11-03T16:34:51.321Z,8.20
2018-11-03T16:37:19.433Z,8.10
2018-11-03T16:39:47.510Z,7.90
2018-11-03T16:42:15.607Z,7.90
2018-11-03T16:44:43.898Z,7.90
2018-11-03T16:47:11.982Z,7.80
2018-11-03T16:49:40.161Z,7.80
2018-11-03T16:52:08.245Z,7.60
2018-11-03T16:54:36.421Z,7.90
2018-11-03T16:57:04.950Z,7.90
2018-11-03T16:59:32.960Z,7.60
2018-11-03T17:02:00.974Z,7.50
2018-11-03T17:04:29.289Z,7.40
2018-11-03T17:06:57.351Z,7.20
2018-11-03T17:09:25.328Z,7.10
2018-11-03T17:11:53.353Z,7.30
2018-11-03T17:14:21.374Z,7.20
2018-11-03T17:16:49.385Z,7.10
2018-11-03T17:19:17.592Z,7.00
2018-11-03T17:21:45.670Z,6.90
2018-11-03T17:24:13.683Z,6.90
2018-11-03T17:26:41.718Z,6.80
2018-11-03T17:29:10.142Z,6.70
2018-11-03T17:31:38.169Z,6.60
2018-11-03T17:34:06.298Z,6.70
2018-11-03T17:36:34.375Z,6.60
2018-11-03T17:39:02.373Z,6.60
2018-11-03T17:41:30.449Z,6.50
2018-11-03T17:43:58.738Z,6.40
2018-11-03T17:46:26.734Z,6.40
2018-11-03T17:48:54.741Z,6.30
2018-11-03T17:51:22.983Z,6.30
2018-11-03T17:53:50.981Z,6.30
2018-11-03T17:56:19.151Z,6.20
2018-11-03T17:58:47.438Z,6.30
2018-11-03T18:01:15.583Z,6.20
2018-11-03T18:03:43.614Z,6.20
2018-11-03T18:06:11.799Z,6.10
2018-11-03T18:08:39.887Z,6.10
2018-11-03T18:11:08.223Z,6.10
2018-11-03T18:13:36.762Z,6.10
2018-11-03T18:16:05.371Z,6.10
2018-11-03T18:18:33.478Z,6.00
2018-11-03T18:21:01.911Z,6.00
2018-11-03T18:23:30.021Z,6.00
2018-11-03T18:25:58.113Z,5.90
2018-11-03T18:28:26.549Z,5.90
2018-11-03T18:30:54.602Z,5.90
2018-11-03T18:33:22.850Z,5.80
2018-11-03T18:35:50.653Z,6.00
2018-11-03T18:38:18.700Z,6.00
2018-11-03T18:40:47.019Z,6.00
2018-11-03T18:43:15.087Z,6.00
2018-11-03T18:45:43.089Z,6.20
2018-11-03T18:48:11.281Z,6.20
2018-11-03T18:50:39.362Z,6.10
2018-11-03T18:53:07.547Z,6.00
2018-11-03T18:55:35.633Z,5.90
2018-11-03T18:58:03.635Z,5.80
2018-11-03T19:00:31.711Z,5.80
2018-11-03T19:03:00.089Z,5.80
2018-11-03T19:05:28.193Z,5.80
2018-11-03T19:07:56.246Z,5.70
2018-11-03T19:10:24.346Z,5.70
2018-11-03T19:12:52.645Z,5.80
2018-11-03T19:15:20.713Z,5.90
2018-11-03T19:17:48.835Z,5.80
2018-11-03T19:20:16.913Z,5.90
2018-11-03T19:22:45.066Z,6.10
2018-11-03T19:25:14.037Z,6.10
2018-11-03T19:27:42.261Z,6.00
2018-11-03T19:30:11.787Z,5.90
2018-11-03T19:32:40.879Z,5.80
2018-11-03T19:35:09.273Z,5.70
2018-11-03T19:37:37.270Z,5.70
2018-11-03T19:40:06.674Z,5.80
2018-11-03T19:42:34.735Z,5.70
2018-11-03T19:45:02.737Z,5.80
2018-11-03T19:47:30.928Z,6.00
2018-11-03T19:49:59.149Z,6.10
2018-11-03T19:52:27.287Z,6.00
2018-11-03T19:54:55.431Z,5.80
2018-11-03T19:57:23.570Z,5.60
2018-11-03T19:59:51.746Z,5.50
2018-11-03T20:02:19.778Z,5.50
2018-11-03T20:04:48.233Z,5.60
2018-11-03T20:07:16.439Z,5.70
2018-11-03T20:09:44.521Z,5.60
2018-11-03T20:12:12.543Z,5.70
2018-11-03T20:14:40.606Z,5.60
2018-11-03T20:17:08.662Z,5.70
2018-11-03T20:19:36.954Z,5.60
2018-11-03T20:22:05.334Z,5.60
2018-11-03T20:24:33.417Z,5.60
2018-11-03T20:27:01.805Z,5.60
2018-11-03T20:29:29.910Z,5.60
2018-11-03T20:31:58.087Z,5.70
2018-11-03T20:34:26.189Z,5.70
2018-11-03T20:36:54.273Z,5.70
2018-11-03T20:39:22.300Z,5.80
2018-11-03T20:41:50.503Z,5.80
2018-11-03T20:44:18.435Z,5.90
2018-11-03T20:46:46.491Z,5.90
2018-11-03T20:49:14.516Z,6.00
2018-11-03T20:51:42.555Z,6.00
2018-11-03T20:54:10.589Z,6.10
2018-11-03T20:56:38.854Z,6.10
2018-11-03T20:59:07.066Z,6.20
2018-11-03T21:01:35.211Z,6.20
2018-11-03T21:04:03.244Z,6.20
2018-11-03T21:06:31.257Z,6.30
2018-11-03T21:08:59.313Z,6.20
2018-11-03T21:11:27.635Z,6.20
2018-11-03T21:13:55.731Z,6.10
2018-11-03T21:16:23.887Z,6.00
2018-11-03T21:18:51.958Z,6.00
2018-11-03T21:21:19.978Z,6.00
2018-11-03T21:23:48.403Z,6.10
2018-11-03T21:26:16.373Z,6.00
2018-11-03T21:28:44.425Z,6.00
2018-11-03T21:31:12.513Z,6.20
2018-11-03T21:33:40.572Z,6.20
2018-11-03T21:36:08.610Z,6.40
2018-11-03T21:38:37.037Z,6.40
2018-11-03T21:41:05.648Z,6.30
2018-11-03T21:43:33.783Z,6.30
2018-11-03T21:46:01.877Z,6.20
2018-11-03T21:48:29.929Z,6.10
2018-11-03T21:50:58.081Z,6.00
2018-11-03T21:53:26.082Z,6.00
2018-11-03T21:55:54.213Z,6.00
2018-11-03T21:58:22.263Z,6.10
2018-11-03T22:00:50.314Z,6.10
2018-11-03T22:03:18.438Z,6.10
2018-11-03T22:05:46.513Z,6.20
2018-11-03T22:08:14.614Z,6.30
2018-11-03T22:10:42.618Z,6.20
2018-11-03T22:13:17.430Z,6.20
2018-11-03T22:15:45.587Z,6.30
2018-11-03T22:18:13.702Z,6.30
2018-11-03T22:20:42.085Z,6.20
2018-11-03T22:23:10.174Z,6.10
2018-11-03T22:25:38.172Z,6.10
2018-11-03T22:28:06.336Z,6.00
2018-11-03T22:30:34.314Z,5.90
2018-11-03T22:33:02.401Z,5.90
2018-11-03T22:35:30.493Z,5.90
2018-11-03T22:37:59.053Z,5.90
2018-11-03T22:40:27.196Z,5.80
2018-11-03T22:42:55.229Z,5.70
2018-11-03T22:45:23.266Z,5.70
2018-11-03T22:47:51.302Z,5.70
2018-11-03T22:50:19.652Z,5.70
2018-11-03T22:52:47.736Z,5.70
2018-11-03T22:55:15.980Z,5.80
2018-11-03T22:57:43.989Z,5.70
2018-11-03T23:00:13.577Z,5.70
2018-11-03T23:02:42.174Z,5.60
2018-11-03T23:05:11.395Z,5.60
2018-11-03T23:07:39.508Z,5.50
2018-11-03T23:10:08.070Z,5.60
2018-11-03T23:12:36.160Z,5.60
2018-11-03T23:15:04.139Z,5.60
2018-11-03T23:17:32.249Z,5.60
2018-11-03T23:20:00.335Z,5.50
2018-11-03T23:22:28.361Z,5.60
2018-11-03T23:24:56.573Z,5.60
2018-11-03T23:27:24.756Z,5.60
2018-11-03T23:29:53.147Z,5.60
2018-11-03T23:32:20.859Z,5.70
2018-11-03T23:34:48.866Z,5.70
2018-11-03T23:37:16.911Z,5.70
2018-11-03T23:39:44.902Z,5.70
2018-11-03T23:42:12.942Z,5.80
2018-11-03T23:44:40.984Z,5.90
2018-11-03T23:47:09.042Z,6.00
2018-11-03T23:49:37.090Z,6.00
2018-11-03T23:52:05.189Z,5.90
2018-11-03T23:54:33.205Z,5.80
2018-11-03T23:57:01.258Z,6.00
2018-11-03T23:59:29.459Z,6.00
